createdAt,value
2019-02-25T06:19:37.033Z,20.42
2019-02-25T06:31:36.921Z,20.46
2019-02-25T06:37:36.921Z,20.45
2019-02-25T06:38:36.812Z,20.42
2019-02-25T06:39:36.847Z,20.45
2019-02-25T06:40:36.805Z,20.49
2019-02-25T06:42:36.766Z,20.43
2019-02-25T06:44:36.751Z,20.39
2019-02-25T06:47:36.711Z,20.50
2019-02-25T06:48:36.702Z,20.49
2019-02-25T06:49:36.748Z,20.49
2019-02-25T06:50:36.684Z,20.45
2019-02-25T06:52:36.709Z,20.46
2019-02-25T06:53:36.645Z,20.46
2019-02-25T06:54:36.639Z,20.53
2019-02-25T06:55:36.629Z,20.48
2019-02-25T06:56:36.618Z,20.49
2019-02-25T06:57:36.620Z,20.50
2019-02-25T06:58:36.587Z,20.52
2019-02-25T06:59:36.572Z,20.52
2019-02-25T07:00:36.582Z,20.57
2019-02-25T07:01:36.545Z,20.53
2019-02-25T07:02:36.545Z,20.55
2019-02-25T07:03:36.535Z,20.52
2019-02-25T07:04:36.565Z,20.57
2019-02-25T07:05:36.537Z,20.61
2019-02-25T07:06:36.506Z,20.61
2019-02-25T07:07:36.685Z,20.57
2019-02-25T07:08:36.475Z,20.61
2019-02-25T07:09:36.454Z,20.58
2019-02-25T07:10:36.445Z,20.61
2019-02-25T07:11:36.440Z,20.64
2019-02-25T07:12:36.431Z,20.65
2019-02-25T07:13:36.417Z,20.63
2019-02-25T07:14:36.404Z,20.67
2019-02-25T07:15:36.416Z,20.70
2019-02-25T07:16:36.389Z,20.70
2019-02-25T07:17:36.392Z,20.67
2019-02-25T07:18:36.363Z,20.68
2019-02-25T07:19:36.349Z,20.76
2019-02-25T07:20:36.348Z,20.78
2019-02-25T07:21:36.330Z,20.78
2019-02-25T07:22:36.692Z,20.75
2019-02-25T07:23:37.706Z,20.78
2019-02-25T07:24:36.319Z,20.78
2019-02-25T07:25:36.281Z,20.78
2019-02-25T07:26:36.270Z,20.76
2019-02-25T07:27:36.265Z,20.80
2019-02-25T07:28:36.719Z,20.79
2019-02-25T07:29:36.267Z,20.80
2019-02-25T07:30:36.218Z,20.76
2019-02-25T07:31:36.253Z,20.85
2019-02-25T07:32:36.216Z,20.80
2019-02-25T07:33:36.190Z,20.83
2019-02-25T07:34:36.189Z,20.85
2019-02-25T07:35:36.175Z,20.89
2019-02-25T07:36:36.186Z,20.82
2019-02-25T07:37:36.145Z,20.88
2019-02-25T07:38:39.467Z,20.83
2019-02-25T07:39:36.124Z,20.92
2019-02-25T07:40:36.109Z,20.95
2019-02-25T07:41:38.168Z,20.94
2019-02-25T07:42:36.091Z,20.95
2019-02-25T07:43:36.077Z,20.94
2019-02-25T07:44:36.066Z,20.95
2019-02-25T07:45:36.066Z,20.94
2019-02-25T07:46:36.055Z,20.90
2019-02-25T07:47:36.026Z,20.94
2019-02-25T07:48:36.019Z,20.95
2019-02-25T07:49:36.002Z,20.95
2019-02-25T07:50:36.019Z,20.98
2019-02-25T07:51:35.982Z,20.97
2019-02-25T07:52:35.984Z,21.00
2019-02-25T07:53:35.961Z,20.94
2019-02-25T07:54:35.966Z,20.88
2019-02-25T07:55:35.957Z,20.89
2019-02-25T07:56:35.937Z,21.01
2019-02-25T07:57:35.971Z,21.00
2019-02-25T07:58:35.907Z,21.04
2019-02-25T07:59:35.971Z,21.07
2019-02-25T08:00:36.137Z,21.01
2019-02-25T08:01:35.912Z,21.10
2019-02-25T08:18:43.421Z,21.13
2019-02-25T08:19:43.433Z,21.19
2019-02-25T08:20:43.394Z,21.05
2019-02-25T08:21:43.352Z,21.17
2019-02-25T08:22:43.361Z,21.08
2019-02-25T08:23:43.336Z,21.08
2019-02-25T08:24:43.330Z,21.08
2019-02-25T08:25:43.323Z,21.12
2019-02-25T08:26:43.300Z,21.17
2019-02-25T08:27:43.293Z,21.21
2019-02-25T08:28:43.299Z,21.12
2019-02-25T08:29:43.293Z,21.13
2019-02-25T08:30:43.248Z,21.13
2019-02-25T08:31:43.250Z,21.12
2019-02-25T08:32:43.234Z,21.17
2019-02-25T08:33:43.243Z,21.19
2019-02-25T08:34:43.214Z,21.26
2019-02-25T08:35:43.228Z,21.19
2019-02-25T08:36:43.210Z,21.23
2019-02-25T08:37:43.261Z,21.17
2019-02-25T08:38:43.175Z,21.20
2019-02-25T08:39:43.147Z,21.20
2019-02-25T08:40:43.141Z,21.24
2019-02-25T08:41:43.146Z,21.19
2019-02-25T08:42:43.176Z,21.19
2019-02-25T08:43:43.114Z,21.21
2019-02-25T08:44:43.100Z,21.15
2019-02-25T08:45:46.021Z,21.21
2019-02-25T08:46:47.236Z,21.23
2019-02-25T08:47:43.066Z,21.29
2019-02-25T08:48:43.060Z,21.17
2019-02-25T08:49:43.042Z,21.35
2019-02-25T08:50:43.257Z,21.29
2019-02-25T08:51:43.030Z,21.24
2019-02-25T08:52:43.028Z,21.29
2019-02-25T08:53:43.308Z,21.30
2019-02-25T08:54:42.998Z,21.36
2019-02-25T08:55:46.162Z,21.27
2019-02-25T08:56:42.982Z,21.29
2019-02-25T08:57:42.964Z,21.30
2019-02-25T08:58:43.072Z,21.38
2019-02-25T08:59:42.941Z,21.26
2019-02-25T09:00:42.975Z,21.35
2019-02-25T09:01:42.900Z,21.38
2019-02-25T09:02:46.358Z,21.36
2019-02-25T09:03:42.933Z,21.34
2019-02-25T09:04:42.897Z,21.30
2019-02-25T09:05:42.935Z,21.35
2019-02-25T09:06:45.602Z,21.34
2019-02-25T09:07:42.981Z,21.32
2019-02-25T09:08:43.174Z,21.39
2019-02-25T09:09:42.845Z,21.34
2019-02-25T09:10:42.899Z,21.32
2019-02-25T09:11:42.825Z,21.38
2019-02-25T09:12:42.813Z,21.36
2019-02-25T09:13:42.773Z,21.35
2019-02-25T09:14:42.753Z,21.38
2019-02-25T09:15:42.754Z,21.39
2019-02-25T09:16:42.731Z,21.42
2019-02-25T09:17:42.722Z,21.36
2019-02-25T09:18:42.717Z,21.35
2019-02-25T09:19:42.705Z,21.42
2019-02-25T09:20:42.683Z,21.46
2019-02-25T09:21:42.699Z,21.41
2019-02-25T09:22:42.715Z,21.45
2019-02-25T09:23:42.678Z,21.38
2019-02-25T09:24:42.726Z,21.46
2019-02-25T09:25:42.633Z,21.42
2019-02-25T09:26:42.649Z,21.45
2019-02-25T09:27:42.650Z,21.42
2019-02-25T09:28:42.642Z,21.44
2019-02-25T09:29:44.826Z,21.45
2019-02-25T09:30:42.587Z,21.42
2019-02-25T09:31:42.569Z,21.44
2019-02-25T09:32:42.645Z,21.42
2019-02-25T09:33:42.750Z,21.44
2019-02-25T09:34:42.554Z,21.41
2019-02-25T09:35:42.560Z,21.41
2019-02-25T09:36:42.503Z,21.45
2019-02-25T09:37:42.541Z,21.46
2019-02-25T09:38:42.513Z,21.51
2019-02-25T09:39:42.572Z,21.51
2019-02-25T09:40:42.459Z,21.54
2019-02-25T09:41:42.489Z,21.54
2019-02-25T09:42:42.431Z,21.51
2019-02-25T09:43:42.435Z,21.56
2019-02-25T09:44:43.498Z,21.51
2019-02-25T09:45:42.412Z,21.57
2019-02-25T09:46:42.408Z,21.59
2019-02-25T09:47:42.403Z,21.61
2019-02-25T09:48:42.385Z,21.54
2019-02-25T09:49:42.442Z,21.56
2019-02-25T09:50:42.380Z,21.57
2019-02-25T09:51:42.353Z,21.54
2019-02-25T09:52:42.322Z,21.60
2019-02-25T09:53:42.348Z,21.59
2019-02-25T09:54:42.320Z,21.56
2019-02-25T09:55:42.291Z,21.59
2019-02-25T09:56:42.284Z,21.54
2019-02-25T09:57:42.481Z,21.60
2019-02-25T09:58:42.653Z,21.59
2019-02-25T09:59:42.278Z,21.56
2019-02-25T10:00:42.247Z,21.56
2019-02-25T10:01:42.248Z,21.56
2019-02-25T10:02:42.223Z,21.57
2019-02-25T10:03:42.206Z,21.59
2019-02-25T10:04:42.264Z,21.59
2019-02-25T10:05:42.181Z,21.51
2019-02-25T10:06:42.180Z,21.61
2019-02-25T10:07:42.181Z,21.59
2019-02-25T10:08:42.172Z,21.59
2019-02-25T10:09:42.359Z,21.60
2019-02-25T10:10:42.176Z,21.60
2019-02-25T10:11:42.111Z,21.59
2019-02-25T10:12:42.151Z,21.59
2019-02-25T10:13:42.107Z,21.64
2019-02-25T10:14:42.090Z,21.53
2019-02-25T10:15:42.343Z,21.64
2019-02-25T10:16:42.058Z,21.60
2019-02-25T10:17:42.096Z,21.61
2019-02-25T10:18:42.059Z,21.60
2019-02-25T10:19:42.230Z,21.60
2019-02-25T10:20:42.002Z,21.60
2019-02-25T10:21:41.990Z,21.61
2019-02-25T10:22:42.007Z,21.66
2019-02-25T10:23:42.399Z,21.54
2019-02-25T10:24:42.166Z,21.56
2019-02-25T10:25:41.973Z,21.61
2019-02-25T10:26:41.947Z,21.56
2019-02-25T10:27:42.144Z,21.60
2019-02-25T10:28:41.931Z,21.69
2019-02-25T10:29:41.914Z,21.53
2019-02-25T10:30:41.906Z,21.67
2019-02-25T10:31:43.704Z,21.72
2019-02-25T10:32:41.896Z,21.72
2019-02-25T10:33:41.871Z,21.72
2019-02-25T10:34:41.867Z,21.60
2019-02-25T10:35:41.870Z,21.69
2019-02-25T10:36:41.852Z,21.63
2019-02-25T10:37:43.673Z,21.59
2019-02-25T10:38:41.828Z,21.71
2019-02-25T10:39:43.340Z,21.67
2019-02-25T10:40:43.362Z,21.67
2019-02-25T10:41:41.760Z,21.78
2019-02-25T10:42:41.762Z,21.66
2019-02-25T10:43:41.738Z,21.66
2019-02-25T10:44:41.739Z,21.72
2019-02-25T10:45:43.299Z,21.64
2019-02-25T10:46:42.829Z,21.79
2019-02-25T10:47:46.739Z,21.71
2019-02-25T10:49:11.105Z,21.75
2019-02-25T10:50:31.178Z,21.74
2019-02-25T10:51:28.960Z,21.78
2019-02-25T10:52:28.953Z,21.78
2019-02-25T10:53:28.936Z,21.82
2019-02-25T10:54:28.908Z,21.81
2019-02-25T10:55:28.918Z,21.72
2019-02-25T10:56:28.898Z,21.79
2019-02-25T10:57:31.363Z,21.83
2019-02-25T10:58:30.733Z,21.76
2019-02-25T10:59:29.845Z,21.79
2019-02-25T11:00:30.657Z,21.76
2019-02-25T11:01:29.506Z,21.75
2019-02-25T11:02:28.904Z,21.75
2019-02-25T11:03:28.941Z,21.79
2019-02-25T11:04:28.857Z,21.76
2019-02-25T11:05:30.646Z,21.82
2019-02-25T11:06:29.601Z,21.78
2019-02-25T11:07:28.776Z,21.75
2019-02-25T11:08:29.010Z,21.75
2019-02-25T11:09:28.752Z,21.81
2019-02-25T11:10:28.790Z,21.78
2019-02-25T11:11:28.776Z,21.79
2019-02-25T11:12:30.101Z,21.76
2019-02-25T11:13:29.769Z,21.82
2019-02-25T11:14:28.735Z,21.85
2019-02-25T11:15:28.693Z,21.78
2019-02-25T11:16:28.688Z,21.78
2019-02-25T11:17:28.666Z,21.91
2019-02-25T11:18:28.658Z,21.85
2019-02-25T11:19:30.615Z,21.82
2019-02-25T11:20:29.260Z,21.85
2019-02-25T11:21:28.630Z,21.89
2019-02-25T11:22:28.625Z,21.89
2019-02-25T11:23:28.645Z,21.90
2019-02-25T11:24:28.629Z,21.89
2019-02-25T11:25:30.180Z,21.90
2019-02-25T11:26:30.539Z,21.89
2019-02-25T11:27:30.845Z,21.79
2019-02-25T11:28:28.597Z,21.83
2019-02-25T11:29:28.564Z,21.78
2019-02-25T11:30:28.526Z,21.82
2019-02-25T11:31:29.858Z,21.81
2019-02-25T11:32:28.548Z,21.85
2019-02-25T11:33:30.254Z,21.85
2019-02-25T11:34:29.490Z,21.87
2019-02-25T11:35:28.482Z,21.75
2019-02-25T11:36:28.490Z,21.87
2019-02-25T11:37:28.442Z,21.90
2019-02-25T11:38:30.348Z,21.82
2019-02-25T11:39:30.233Z,21.82
2019-02-25T11:40:30.994Z,21.85
2019-02-25T11:41:29.667Z,21.76
2019-02-25T11:42:28.375Z,21.83
2019-02-25T11:43:28.447Z,21.85
2019-02-25T11:44:31.164Z,21.85
2019-02-25T11:45:29.376Z,21.85
2019-02-25T11:46:28.356Z,21.87
2019-02-25T11:47:28.327Z,21.76
2019-02-25T11:48:28.385Z,21.78
2019-02-25T11:49:28.308Z,21.85
2019-02-25T11:50:28.284Z,21.75
2019-02-25T11:51:28.290Z,21.79
2019-02-25T11:52:28.291Z,21.75
2019-02-25T11:53:28.268Z,21.72
2019-02-25T11:54:28.267Z,21.81
2019-02-25T11:55:28.263Z,21.71
2019-02-25T11:56:28.222Z,21.82
2019-02-25T11:57:28.227Z,21.81
2019-02-25T11:58:28.200Z,21.82
2019-02-25T11:59:28.229Z,21.79
2019-02-25T12:00:28.187Z,21.72
2019-02-25T12:01:28.179Z,21.75
2019-02-25T12:02:28.153Z,21.75
2019-02-25T12:03:28.152Z,21.79
2019-02-25T12:04:29.287Z,21.81
2019-02-25T12:05:28.113Z,21.69
2019-02-25T12:06:28.119Z,21.79
2019-02-25T12:07:28.099Z,21.72
2019-02-25T12:08:28.137Z,21.81
2019-02-25T12:09:28.084Z,21.81
2019-02-25T12:10:28.074Z,21.81
2019-02-25T12:11:28.063Z,21.85
2019-02-25T12:12:28.046Z,21.81
2019-02-25T12:13:28.027Z,21.78
2019-02-25T12:14:28.053Z,21.81
2019-02-25T12:15:28.198Z,21.76
2019-02-25T12:16:28.291Z,21.76
2019-02-25T12:17:28.012Z,21.76
2019-02-25T12:18:27.982Z,21.81
2019-02-25T12:19:27.963Z,21.81
2019-02-25T12:20:27.970Z,21.82
2019-02-25T12:21:27.937Z,21.81
2019-02-25T12:22:27.944Z,21.82
2019-02-25T12:23:27.934Z,21.76
2019-02-25T12:24:27.912Z,21.75
2019-02-25T12:25:27.905Z,21.75
2019-02-25T12:26:27.895Z,21.78
2019-02-25T12:27:27.871Z,21.79
2019-02-25T12:28:27.864Z,21.78
2019-02-25T12:29:27.916Z,21.78
2019-02-25T12:30:27.872Z,21.81
2019-02-25T12:31:27.892Z,21.74
2019-02-25T12:32:27.820Z,21.85
2019-02-25T12:33:27.837Z,21.81
2019-02-25T12:34:27.822Z,21.81
2019-02-25T12:35:27.798Z,21.78
2019-02-25T12:36:27.782Z,21.79
2019-02-25T12:37:27.762Z,21.76
2019-02-25T12:38:27.763Z,21.79
2019-02-25T12:39:49.497Z,21.76
2019-02-25T12:40:49.480Z,21.81
2019-02-25T12:41:49.476Z,21.85
2019-02-25T12:42:49.428Z,21.83
2019-02-25T12:43:49.503Z,21.89
2019-02-25T12:44:49.413Z,21.85
2019-02-25T12:45:49.406Z,21.90
2019-02-25T12:46:49.377Z,21.81
2019-02-25T12:47:49.394Z,21.90
2019-02-25T12:48:49.395Z,21.89
2019-02-25T12:49:49.495Z,21.90
2019-02-25T12:50:49.342Z,21.90
2019-02-25T12:51:49.333Z,21.89
2019-02-25T12:52:49.344Z,21.83
2019-02-25T12:53:49.301Z,21.82
2019-02-25T12:54:49.295Z,21.85
2019-02-25T12:55:49.298Z,21.79
2019-02-25T12:56:49.273Z,21.85
2019-02-25T12:57:49.289Z,21.87
2019-02-25T12:58:49.469Z,21.89
2019-02-25T12:59:49.232Z,21.85
2019-02-25T13:00:49.226Z,21.89
2019-02-25T13:01:49.227Z,21.82
2019-02-25T13:02:49.220Z,21.85
2019-02-25T13:03:49.217Z,21.91
2019-02-25T13:04:49.198Z,21.93
2019-02-25T13:05:49.203Z,21.83
2019-02-25T13:06:49.158Z,21.87
2019-02-25T13:07:49.153Z,21.83
2019-02-25T13:08:49.222Z,21.89
2019-02-25T13:09:49.130Z,21.87
2019-02-25T13:10:49.120Z,21.78
2019-02-25T13:11:49.106Z,21.87
2019-02-25T13:12:51.418Z,21.83
2019-02-25T13:13:49.090Z,21.85
2019-02-25T13:14:49.067Z,21.81
2019-02-25T13:15:49.073Z,21.87
2019-02-25T13:16:49.049Z,21.85
2019-02-25T13:17:49.035Z,21.87
2019-02-25T13:18:49.015Z,21.83
2019-02-25T13:19:49.014Z,21.78
2019-02-25T13:20:49.017Z,21.81
2019-02-25T13:21:48.986Z,21.74
2019-02-25T13:22:49.101Z,21.90
2019-02-25T13:23:49.197Z,21.79
2019-02-25T13:24:48.951Z,21.79
2019-02-25T13:25:48.975Z,21.81
2019-02-25T13:26:48.930Z,21.83
2019-02-25T13:27:48.921Z,21.76
2019-02-25T13:28:48.990Z,21.79
2019-02-25T13:29:49.707Z,21.79
2019-02-25T13:30:48.930Z,21.81
2019-02-25T13:31:48.885Z,21.74
2019-02-25T13:32:48.865Z,21.76
2019-02-25T13:33:48.867Z,21.81
2019-02-25T13:34:48.844Z,21.81
2019-02-25T13:35:48.857Z,21.83
2019-02-25T13:36:48.816Z,21.78
2019-02-25T13:37:49.555Z,21.85
2019-02-25T13:38:48.903Z,21.90
2019-02-25T13:39:48.867Z,21.78
2019-02-25T13:40:48.800Z,21.78
2019-02-25T13:41:48.781Z,21.85
2019-02-25T13:42:48.777Z,21.76
2019-02-25T13:43:48.757Z,21.78
2019-02-25T13:44:48.735Z,21.78
2019-02-25T13:45:48.725Z,21.78
2019-02-25T13:46:48.711Z,21.79
2019-02-25T14:01:59.522Z,21.71
2019-02-25T14:02:59.505Z,21.72
2019-02-25T14:03:59.495Z,21.67
2019-02-25T14:04:59.478Z,21.67
2019-02-25T14:05:59.494Z,21.67
2019-02-25T14:06:59.528Z,21.69
2019-02-25T14:07:59.460Z,21.56
2019-02-25T14:08:59.432Z,21.63
2019-02-25T14:09:59.439Z,21.61
2019-02-25T14:10:59.430Z,21.71
2019-02-25T14:11:59.408Z,21.59
2019-02-25T14:12:59.385Z,21.54
2019-02-25T14:13:59.386Z,21.59
2019-02-25T14:14:59.477Z,21.60
2019-02-25T14:15:59.368Z,21.56
2019-02-25T14:16:59.370Z,21.56
2019-02-25T14:17:59.350Z,21.59
2019-02-25T14:18:59.371Z,21.60
2019-02-25T14:19:59.313Z,21.54
2019-02-25T14:20:59.300Z,21.67
2019-02-25T14:21:59.290Z,21.63
2019-02-25T14:23:00.673Z,21.57
2019-02-25T14:23:59.812Z,21.57
2019-02-25T14:24:59.245Z,21.63
2019-02-25T14:25:59.272Z,21.59
2019-02-25T14:26:59.401Z,21.60
2019-02-25T14:27:59.294Z,21.60
2019-02-25T14:28:59.216Z,21.60
2019-02-25T14:29:59.200Z,21.53
2019-02-25T14:30:59.194Z,21.53
2019-02-25T14:31:59.198Z,21.60
2019-02-25T14:32:59.242Z,21.59
2019-02-25T14:33:59.175Z,21.59
2019-02-25T14:34:59.149Z,21.60
2019-02-25T14:35:59.145Z,21.53
2019-02-25T14:37:00.233Z,21.59
2019-02-25T14:38:04.179Z,21.57
2019-02-25T14:39:24.917Z,21.63
2019-02-25T14:40:22.097Z,21.59
2019-02-25T14:41:21.402Z,21.61
2019-02-25T14:42:23.752Z,21.61
2019-02-25T14:43:22.663Z,21.59
2019-02-25T14:44:21.577Z,21.56
2019-02-25T14:45:21.805Z,21.59
2019-02-25T14:46:22.570Z,21.69
2019-02-25T14:47:25.747Z,21.60
